createdAt,value
2023-01-19T00:01:05.623Z,0.20
2023-01-19T00:03:35.237Z,0.26
2023-01-19T00:06:07.980Z,0.32
2023-01-19T00:08:37.807Z,0.37
2023-01-19T00:11:08.016Z,0.40
2023-01-19T00:13:40.201Z,0.43
2023-01-19T00:16:10.575Z,0.45
2023-01-19T00:18:40.187Z,0.46
2023-01-19T00:21:09.738Z,0.46
2023-01-19T00:23:39.362Z,0.48
2023-01-19T00:26:10.325Z,0.52
2023-01-19T00:28:42.481Z,0.54
2023-01-19T00:31:12.149Z,0.56
2023-01-19T00:33:41.769Z,0.56
2023-01-19T00:36:12.807Z,0.60
2023-01-19T00:38:42.367Z,0.65
2023-01-19T00:41:11.931Z,0.69
2023-01-19T00:43:41.577Z,0.71
2023-01-19T00:46:11.225Z,0.75
2023-01-19T00:48:40.873Z,0.78
2023-01-19T00:51:10.511Z,0.78
2023-01-19T00:53:40.081Z,0.80
2023-01-19T00:56:10.555Z,0.81
2023-01-19T00:58:40.126Z,0.80
2023-01-19T01:01:12.373Z,0.77
2023-01-19T01:03:42.038Z,0.75
2023-01-19T01:06:11.674Z,0.70
2023-01-19T01:08:41.281Z,0.67
2023-01-19T01:11:10.844Z,0.67
2023-01-19T01:13:40.440Z,0.69
2023-01-19T01:16:12.913Z,0.72
2023-01-19T01:18:42.494Z,0.76
2023-01-19T01:21:15.563Z,0.82
2023-01-19T01:23:45.144Z,0.85
2023-01-19T01:26:14.752Z,0.88
2023-01-19T01:28:44.358Z,0.92
2023-01-19T01:31:16.552Z,0.93
2023-01-19T01:33:46.141Z,0.94
2023-01-19T01:36:15.732Z,0.92
2023-01-19T01:38:45.307Z,0.91
2023-01-19T01:41:15.321Z,0.90
2023-01-19T01:43:48.285Z,0.89
2023-01-19T01:46:20.712Z,0.86
2023-01-19T01:48:53.707Z,0.84
2023-01-19T01:51:27.254Z,0.87
2023-01-19T01:54:06.827Z,0.89
2023-01-19T01:56:39.029Z,0.90
2023-01-19T01:59:10.756Z,0.91
2023-01-19T02:01:55.683Z,0.92
2023-01-19T02:04:26.345Z,0.92
2023-01-19T02:07:08.398Z,0.94
2023-01-19T02:09:52.275Z,0.94
2023-01-19T02:12:34.329Z,0.93
2023-01-19T02:15:04.153Z,0.91
2023-01-19T02:17:36.300Z,0.89
2023-01-19T02:20:06.278Z,0.86
2023-01-19T02:22:39.715Z,0.82
2023-01-19T02:25:12.335Z,0.79
2023-01-19T02:27:41.877Z,0.78
2023-01-19T02:30:13.473Z,0.77
2023-01-19T02:32:43.052Z,0.78
2023-01-19T02:35:13.182Z,0.81
2023-01-19T02:37:43.457Z,0.83
2023-01-19T02:40:19.752Z,0.83
2023-01-19T02:42:51.774Z,0.85
2023-01-19T02:45:24.290Z,0.91
2023-01-19T02:47:55.304Z,0.94
2023-01-19T02:50:41.883Z,0.97
2023-01-19T02:53:43.357Z,0.99
2023-01-19T02:56:32.853Z,1.05
2023-01-19T02:59:05.111Z,1.04
2023-01-19T03:01:43.536Z,1.06
2023-01-19T03:04:18.761Z,1.05
2023-01-19T03:06:51.865Z,1.05
2023-01-19T03:09:29.690Z,1.04
2023-01-19T03:12:05.533Z,1.02
2023-01-19T03:14:36.642Z,1.02
2023-01-19T03:17:08.162Z,1.01
2023-01-19T03:19:40.008Z,1.02
2023-01-19T03:22:13.367Z,1.04
2023-01-19T03:24:45.153Z,1.03
2023-01-19T03:27:19.959Z,1.01
2023-01-19T03:29:52.846Z,0.97
2023-01-19T03:32:25.076Z,0.93
2023-01-19T03:34:56.466Z,0.91
2023-01-19T03:37:27.200Z,0.91
2023-01-19T03:39:57.212Z,0.94
2023-01-19T03:42:30.392Z,0.96
2023-01-19T03:45:01.269Z,0.98
2023-01-19T03:47:31.428Z,1.01
2023-01-19T03:50:01.377Z,1.07
2023-01-19T03:52:33.201Z,1.12
2023-01-19T03:55:03.878Z,1.15
2023-01-19T03:57:36.034Z,1.17
2023-01-19T04:00:06.714Z,1.22
2023-01-19T04:02:41.602Z,1.27
2023-01-19T04:05:12.729Z,1.35
2023-01-19T04:07:42.283Z,1.41
2023-01-19T04:10:13.381Z,1.45
2023-01-19T04:12:45.548Z,1.47
2023-01-19T04:15:15.441Z,1.50
2023-01-19T04:17:45.011Z,1.54
2023-01-19T04:20:15.011Z,1.60
2023-01-19T04:22:44.716Z,1.62
2023-01-19T04:25:14.283Z,1.63
2023-01-19T04:27:46.400Z,1.66
2023-01-19T04:30:16.927Z,1.68
2023-01-19T04:32:46.936Z,1.66
2023-01-19T04:35:17.029Z,1.60
2023-01-19T04:37:47.537Z,1.52
2023-01-19T04:40:17.346Z,1.45
2023-01-19T04:42:49.722Z,1.37
2023-01-19T04:45:19.729Z,1.28
2023-01-19T04:47:49.303Z,1.22
2023-01-19T04:50:19.307Z,1.17
2023-01-19T04:52:49.113Z,1.15
2023-01-19T04:55:19.846Z,1.13
2023-01-19T04:57:51.981Z,1.12
2023-01-19T05:00:22.178Z,1.12
2023-01-19T05:02:51.839Z,1.10
2023-01-19T05:05:21.447Z,1.09
2023-01-19T05:07:51.058Z,1.09
2023-01-19T05:10:20.761Z,1.03
2023-01-19T05:12:52.998Z,0.95
2023-01-19T05:15:22.617Z,0.88
2023-01-19T05:17:52.908Z,0.80
2023-01-19T05:20:22.595Z,0.75
2023-01-19T05:22:53.423Z,0.68
2023-01-19T05:25:23.017Z,0.57
2023-01-19T05:27:55.173Z,0.49
2023-01-19T05:30:24.736Z,0.47
2023-01-19T05:32:54.306Z,0.49
2023-01-19T05:35:35.429Z,0.53
2023-01-19T05:38:05.515Z,0.58
2023-01-19T05:40:35.146Z,0.63
2023-01-19T05:43:07.401Z,0.64
2023-01-19T05:45:38.879Z,0.59
2023-01-19T05:48:09.506Z,0.57
2023-01-19T05:50:39.890Z,0.54
2023-01-19T05:53:09.438Z,0.52
2023-01-19T05:55:39.137Z,0.46
2023-01-19T05:58:11.343Z,0.41
2023-01-19T06:00:40.901Z,0.38
2023-01-19T06:03:10.467Z,0.35
2023-01-19T06:05:40.039Z,0.34
2023-01-19T06:08:09.581Z,0.32
2023-01-19T06:10:39.544Z,0.33
2023-01-19T06:13:12.184Z,0.38
2023-01-19T06:15:43.043Z,0.39
2023-01-19T06:18:12.628Z,0.30
2023-01-19T06:20:42.250Z,0.23
2023-01-19T06:23:11.792Z,0.22
2023-01-19T06:25:41.466Z,0.25
2023-01-19T06:28:13.734Z,0.29
2023-01-19T06:30:43.713Z,0.36
2023-01-19T06:33:13.375Z,0.42
2023-01-19T06:35:45.881Z,0.44
2023-01-19T06:38:17.187Z,0.45
2023-01-19T06:40:47.075Z,0.45
2023-01-19T06:43:20.324Z,0.46
2023-01-19T06:45:50.304Z,0.49
2023-01-19T06:48:20.510Z,0.53
2023-01-19T06:50:50.437Z,0.55
2023-01-19T06:53:22.269Z,0.57
2023-01-19T06:55:51.883Z,0.52
2023-01-19T06:58:24.326Z,0.42
2023-01-19T07:00:53.990Z,0.36
2023-01-19T07:03:25.977Z,0.27
2023-01-19T07:05:57.089Z,0.24
2023-01-19T07:08:27.137Z,0.19
2023-01-19T07:11:22.266Z,0.13
2023-01-19T07:13:57.045Z,0.10
2023-01-19T07:16:26.772Z,0.12
2023-01-19T07:18:56.483Z,0.16
2023-01-19T07:21:28.961Z,0.25
2023-01-19T07:23:59.104Z,0.31
2023-01-19T07:26:28.719Z,0.37
2023-01-19T07:29:00.834Z,0.42
2023-01-19T07:31:30.557Z,0.48
2023-01-19T07:34:00.697Z,0.54
2023-01-19T07:36:30.423Z,0.58
2023-01-19T07:39:00.171Z,0.62
2023-01-19T07:41:29.717Z,0.66
2023-01-19T07:44:01.888Z,0.70
2023-01-19T07:46:31.462Z,0.72
2023-01-19T07:49:01.002Z,0.75
2023-01-19T07:51:30.631Z,0.77
2023-01-19T07:54:00.241Z,0.79
2023-01-19T07:56:33.607Z,0.83
2023-01-19T07:59:07.442Z,0.87
2023-01-19T08:01:37.771Z,0.90
2023-01-19T08:04:07.840Z,0.92
2023-01-19T08:06:39.252Z,0.94
2023-01-19T08:09:10.069Z,0.96
2023-01-19T08:11:39.696Z,1.00
2023-01-19T08:14:12.729Z,1.05
2023-01-19T08:16:42.304Z,1.12
2023-01-19T08:19:11.868Z,1.16
2023-01-19T08:21:41.562Z,1.18
2023-01-19T08:24:21.432Z,1.24
2023-01-19T08:26:53.096Z,1.28
2023-01-19T08:29:25.237Z,1.30
2023-01-19T08:31:57.467Z,1.33
2023-01-19T08:34:27.331Z,1.37
2023-01-19T08:36:56.939Z,1.42
2023-01-19T08:39:27.419Z,1.47
2023-01-19T08:41:58.194Z,1.50
2023-01-19T08:44:30.407Z,1.52
2023-01-19T08:47:00.033Z,1.58
2023-01-19T08:49:29.589Z,1.62
2023-01-19T08:51:59.123Z,1.66
2023-01-19T08:54:28.694Z,1.71
2023-01-19T08:56:58.494Z,1.72
2023-01-19T08:59:30.643Z,1.75
2023-01-19T09:02:00.430Z,1.80
2023-01-19T09:04:30.044Z,1.85
2023-01-19T09:06:59.635Z,1.89
2023-01-19T09:09:29.189Z,1.94
2023-01-19T09:11:58.861Z,1.98
2023-01-19T09:14:31.064Z,2.01
2023-01-19T09:17:00.660Z,2.06
2023-01-19T09:19:30.665Z,2.12
2023-01-19T09:22:00.470Z,2.13
2023-01-19T09:24:30.018Z,2.17
2023-01-19T09:26:59.584Z,2.22
2023-01-19T09:29:31.744Z,2.25
2023-01-19T09:32:01.336Z,2.28
2023-01-19T09:34:31.456Z,2.32
2023-01-19T09:37:01.042Z,2.36
2023-01-19T09:39:30.717Z,2.41
2023-01-19T09:42:05.987Z,2.45
2023-01-19T09:44:38.541Z,2.47
2023-01-19T09:47:17.147Z,2.51
2023-01-19T09:49:49.439Z,2.52
2023-01-19T09:52:20.473Z,2.53
2023-01-19T09:54:54.994Z,2.59
2023-01-19T09:57:25.133Z,2.65
2023-01-19T09:59:59.778Z,2.70
2023-01-19T10:02:37.244Z,2.73
2023-01-19T10:05:08.541Z,2.73
2023-01-19T10:07:58.430Z,2.71
2023-01-19T10:10:29.410Z,2.73
2023-01-19T10:13:06.882Z,2.74
2023-01-19T10:15:48.055Z,2.70
2023-01-19T10:18:21.764Z,2.65
2023-01-19T10:20:53.675Z,2.59
2023-01-19T10:23:38.206Z,2.57
2023-01-19T10:26:12.378Z,2.58
2023-01-19T10:28:41.731Z,2.59
2023-01-19T10:31:14.555Z,2.64
2023-01-19T10:33:44.225Z,2.68
2023-01-19T10:36:21.174Z,2.67
2023-01-19T10:38:52.009Z,2.68
2023-01-19T10:41:24.322Z,2.71
2023-01-19T10:44:02.409Z,2.74
2023-01-19T10:46:40.297Z,2.76
2023-01-19T10:49:10.137Z,2.77
2023-01-19T10:51:49.481Z,2.75
2023-01-19T10:54:19.321Z,2.72
2023-01-19T10:56:54.101Z,2.69
2023-01-19T10:59:35.778Z,2.65
2023-01-19T11:02:17.891Z,2.61
2023-01-19T11:04:50.216Z,2.61
2023-01-19T11:07:23.282Z,2.61
2023-01-19T11:09:53.203Z,2.60
2023-01-19T11:12:25.054Z,2.61
2023-01-19T11:14:54.657Z,2.67
2023-01-19T11:17:28.059Z,2.73
2023-01-19T11:20:02.748Z,2.76
2023-01-19T11:22:34.354Z,2.75
2023-01-19T11:25:06.642Z,2.80
2023-01-19T11:27:39.144Z,2.88
2023-01-19T11:30:12.681Z,2.94
2023-01-19T11:32:44.822Z,2.96
2023-01-19T11:35:36.609Z,2.99
2023-01-19T11:38:20.152Z,3.01
2023-01-19T11:40:55.192Z,3.04
2023-01-19T11:43:30.173Z,3.10
2023-01-19T11:46:03.797Z,3.16
2023-01-19T11:48:40.019Z,3.17
2023-01-19T11:51:15.072Z,3.15
2023-01-19T11:53:46.466Z,3.08
2023-01-19T11:56:17.414Z,3.02
2023-01-19T11:58:48.784Z,2.99
2023-01-19T12:01:24.919Z,2.96
2023-01-19T12:04:01.219Z,2.93
2023-01-19T12:06:34.226Z,2.94
2023-01-19T12:09:06.790Z,2.96
2023-01-19T12:11:40.305Z,3.00
2023-01-19T12:14:17.109Z,3.06
2023-01-19T12:16:47.110Z,3.10
2023-01-19T12:19:21.776Z,3.09
2023-01-19T12:21:52.571Z,3.06
2023-01-19T12:24:29.078Z,3.05
2023-01-19T12:26:59.996Z,3.04
2023-01-19T12:29:32.235Z,3.07
2023-01-19T12:32:20.265Z,3.07
2023-01-19T12:34:53.218Z,3.06
2023-01-19T12:37:37.363Z,3.04
2023-01-19T12:40:21.952Z,3.05
2023-01-19T12:42:57.097Z,3.07
2023-01-19T12:45:28.314Z,3.07
2023-01-19T12:47:58.707Z,3.08
2023-01-19T12:50:35.000Z,3.11
2023-01-19T12:53:08.341Z,3.18
2023-01-19T12:55:46.576Z,3.22
2023-01-19T12:58:18.818Z,3.26
2023-01-19T13:00:50.191Z,3.36
2023-01-19T13:04:00.598Z,3.53
2023-01-19T13:07:04.765Z,3.69
2023-01-19T13:09:37.891Z,3.77
2023-01-19T13:12:23.799Z,3.78
2023-01-19T13:14:53.501Z,3.72
2023-01-19T13:17:33.549Z,3.68
2023-01-19T13:20:07.068Z,3.66
2023-01-19T13:23:16.572Z,3.73
2023-01-19T13:25:50.845Z,3.77
2023-01-19T13:28:20.495Z,3.75
2023-01-19T13:30:57.766Z,3.69
2023-01-19T13:33:29.755Z,3.67
2023-01-19T13:36:00.015Z,3.65
2023-01-19T13:38:32.906Z,3.64
2023-01-19T13:41:05.740Z,3.61
2023-01-19T13:43:37.582Z,3.58
2023-01-19T13:46:07.759Z,3.56
2023-01-19T13:48:37.400Z,3.55
2023-01-19T13:51:08.919Z,3.53
2023-01-19T13:53:38.515Z,3.50
2023-01-19T13:56:23.538Z,3.45
2023-01-19T13:59:05.104Z,3.37
2023-01-19T14:01:34.859Z,3.32
2023-01-19T14:04:04.702Z,3.30
2023-01-19T14:06:42.418Z,3.27
2023-01-19T14:09:19.323Z,3.25
2023-01-19T14:12:09.107Z,3.23
2023-01-19T14:14:38.877Z,3.22
2023-01-19T14:17:23.987Z,3.26
2023-01-19T14:19:55.438Z,3.28
2023-01-19T14:22:40.547Z,3.28
2023-01-19T14:25:34.408Z,3.26
2023-01-19T14:28:39.429Z,3.24
2023-01-19T14:31:22.794Z,3.24
2023-01-19T14:33:54.075Z,3.28
2023-01-19T14:36:39.243Z,3.28
2023-01-19T14:39:16.936Z,3.26
2023-01-19T14:41:49.187Z,3.24
2023-01-19T14:44:24.057Z,3.21
2023-01-19T14:46:53.667Z,3.15
2023-01-19T14:49:25.468Z,3.08
2023-01-19T14:51:56.079Z,3.04
2023-01-19T14:54:40.758Z,2.99
2023-01-19T14:57:14.223Z,2.94
2023-01-19T14:59:49.558Z,2.90
2023-01-19T15:02:19.493Z,2.84
2023-01-19T15:04:51.496Z,2.81
2023-01-19T15:07:21.799Z,2.78
2023-01-19T15:09:51.621Z,2.77
2023-01-19T15:12:24.048Z,2.75
2023-01-19T15:14:56.309Z,2.71
2023-01-19T15:17:27.902Z,2.70
2023-01-19T15:19:59.321Z,2.67
2023-01-19T15:22:30.023Z,2.64
2023-01-19T15:25:00.343Z,2.62
2023-01-19T15:27:30.114Z,2.60
2023-01-19T15:30:02.307Z,2.59
2023-01-19T15:32:31.867Z,2.60
2023-01-19T15:35:01.429Z,2.61
2023-01-19T15:37:33.029Z,2.61
2023-01-19T15:40:02.580Z,2.61
2023-01-19T15:42:33.348Z,2.61
2023-01-19T15:45:05.612Z,2.60
2023-01-19T15:47:35.185Z,2.56
2023-01-19T15:50:04.737Z,2.53
2023-01-19T15:52:34.333Z,2.51
2023-01-19T15:55:03.858Z,2.51
2023-01-19T15:57:35.096Z,2.49
2023-01-19T16:00:08.191Z,2.48
2023-01-19T16:02:40.056Z,2.47
2023-01-19T16:05:10.715Z,2.47
2023-01-19T16:07:40.529Z,2.47
2023-01-19T16:10:10.745Z,2.51
2023-01-19T16:12:40.505Z,2.50
2023-01-19T16:15:14.005Z,2.52
2023-01-19T16:17:43.559Z,2.53
2023-01-19T16:20:14.941Z,2.57
2023-01-19T16:22:44.651Z,2.60
2023-01-19T16:25:14.644Z,2.62
2023-01-19T16:27:44.193Z,2.65
2023-01-19T16:30:19.418Z,2.64
2023-01-19T16:32:49.353Z,2.62
2023-01-19T16:35:19.013Z,2.61
2023-01-19T16:37:53.018Z,2.61
2023-01-19T16:40:22.812Z,2.61
2023-01-19T16:42:52.409Z,2.61
2023-01-19T16:45:24.543Z,2.60
2023-01-19T16:47:54.152Z,2.58
2023-01-19T16:50:23.761Z,2.54
2023-01-19T16:52:53.320Z,2.51
2023-01-19T16:55:22.859Z,2.45
2023-01-19T16:57:52.633Z,2.43
2023-01-19T17:00:24.982Z,2.42
2023-01-19T17:02:54.607Z,2.42
2023-01-19T17:05:24.226Z,2.42
2023-01-19T17:07:53.809Z,2.43
2023-01-19T17:10:23.582Z,2.44
2023-01-19T17:12:53.132Z,2.43
2023-01-19T17:15:25.429Z,2.44
2023-01-19T17:17:54.995Z,2.43
2023-01-19T17:20:24.539Z,2.41
2023-01-19T17:22:54.562Z,2.42
2023-01-19T17:25:24.129Z,2.43
2023-01-19T17:27:53.723Z,2.43
2023-01-19T17:30:26.024Z,2.43
2023-01-19T17:32:55.677Z,2.42
2023-01-19T17:35:25.242Z,2.42
2023-01-19T17:37:56.906Z,2.40
2023-01-19T17:40:27.309Z,2.40
2023-01-19T17:42:56.896Z,2.40
2023-01-19T17:45:29.025Z,2.42
2023-01-19T17:47:58.627Z,2.42
2023-01-19T17:50:28.233Z,2.42
2023-01-19T17:52:58.357Z,2.42
2023-01-19T17:55:27.971Z,2.43
2023-01-19T17:58:00.223Z,2.40
2023-01-19T18:00:32.695Z,2.39
2023-01-19T18:03:02.378Z,2.36
2023-01-19T18:05:32.010Z,2.35
2023-01-19T18:08:01.835Z,2.33
2023-01-19T18:10:31.388Z,2.31
2023-01-19T18:13:00.955Z,2.29
2023-01-19T18:15:33.132Z,2.29
2023-01-19T18:18:02.722Z,2.29
2023-01-19T18:20:32.355Z,2.26
2023-01-19T18:23:01.930Z,2.22
2023-01-19T18:25:31.546Z,2.17
2023-01-19T18:28:01.217Z,2.16
2023-01-19T18:30:33.430Z,2.15
2023-01-19T18:33:03.102Z,2.15
2023-01-19T18:35:32.704Z,2.14
2023-01-19T18:38:02.319Z,2.13
2023-01-19T18:40:31.933Z,2.12
2023-01-19T18:43:01.487Z,2.11
2023-01-19T18:45:33.617Z,2.11
2023-01-19T18:48:03.688Z,2.11
2023-01-19T18:50:33.440Z,2.08
2023-01-19T18:53:03.017Z,2.06
2023-01-19T18:55:32.598Z,2.05
2023-01-19T18:58:04.173Z,2.05
2023-01-19T19:00:36.369Z,2.04
2023-01-19T19:03:10.272Z,2.01
2023-01-19T19:05:39.947Z,1.97
2023-01-19T19:08:09.943Z,1.93
2023-01-19T19:10:39.517Z,1.91
2023-01-19T19:13:09.168Z,1.89
2023-01-19T19:15:41.553Z,1.86
2023-01-19T19:18:13.203Z,1.84
2023-01-19T19:20:43.471Z,1.82
2023-01-19T19:23:13.879Z,1.79
2023-01-19T19:25:43.475Z,1.78
2023-01-19T19:28:13.056Z,1.74
2023-01-19T19:30:46.597Z,1.68
2023-01-19T19:33:16.341Z,1.59
2023-01-19T19:35:45.975Z,1.50
2023-01-19T19:38:15.535Z,1.42
2023-01-19T19:40:45.088Z,1.37
2023-01-19T19:43:14.715Z,1.34
2023-01-19T19:45:46.837Z,1.37
2023-01-19T19:48:16.446Z,1.40
2023-01-19T19:50:46.263Z,1.42
2023-01-19T19:53:15.829Z,1.44
2023-01-19T19:55:45.382Z,1.45
2023-01-19T19:58:14.959Z,1.45
2023-01-19T20:00:47.846Z,1.44
2023-01-19T20:03:17.458Z,1.45
2023-01-19T20:05:47.221Z,1.45
2023-01-19T20:08:16.921Z,1.48
2023-01-19T20:10:46.488Z,1.51
2023-01-19T20:13:19.263Z,1.56
2023-01-19T20:15:52.595Z,1.58
2023-01-19T20:18:22.180Z,1.59
2023-01-19T20:20:51.720Z,1.63
2023-01-19T20:23:21.317Z,1.67
2023-01-19T20:25:50.907Z,1.70
2023-01-19T20:28:20.574Z,1.72
2023-01-19T20:30:54.741Z,1.74
2023-01-19T20:33:24.145Z,1.75
2023-01-19T20:35:54.222Z,1.73
2023-01-19T20:38:23.790Z,1.74
2023-01-19T20:40:53.367Z,1.72
2023-01-19T20:43:23.007Z,1.69
2023-01-19T20:45:55.292Z,1.67
2023-01-19T20:48:24.943Z,1.64
2023-01-19T20:51:00.428Z,1.58
2023-01-19T20:53:30.700Z,1.53
2023-01-19T20:56:00.261Z,1.49
2023-01-19T20:58:31.324Z,1.46
2023-01-19T21:01:03.550Z,1.42
2023-01-19T21:03:34.816Z,1.35
2023-01-19T21:06:04.354Z,1.29
2023-01-19T21:08:33.944Z,1.23
2023-01-19T21:11:03.784Z,1.17
2023-01-19T21:13:33.401Z,1.10
2023-01-19T21:16:06.437Z,1.02
2023-01-19T21:18:36.208Z,0.95
2023-01-19T21:21:05.827Z,0.86
2023-01-19T21:23:35.834Z,0.76
2023-01-19T21:26:06.949Z,0.64
2023-01-19T21:28:36.583Z,0.54
2023-01-19T21:31:12.914Z,0.43
2023-01-19T21:33:42.975Z,0.38
2023-01-19T21:36:13.536Z,0.39
2023-01-19T21:38:43.128Z,0.49
2023-01-19T21:41:16.266Z,0.59
2023-01-19T21:43:46.324Z,0.71
2023-01-19T21:46:21.317Z,0.82
2023-01-19T21:48:51.238Z,0.93
2023-01-19T21:51:20.826Z,1.03
2023-01-19T21:53:52.375Z,1.10
2023-01-19T21:56:22.533Z,1.17
2023-01-19T21:58:52.088Z,1.23
2023-01-19T22:01:24.548Z,1.27
2023-01-19T22:03:56.443Z,1.30
2023-01-19T22:06:27.059Z,1.33
2023-01-19T22:08:57.964Z,1.32
2023-01-19T22:11:27.680Z,1.32
2023-01-19T22:13:59.632Z,1.31
2023-01-19T22:16:32.313Z,1.27
2023-01-19T22:19:03.667Z,1.23
2023-01-19T22:21:35.583Z,1.20
2023-01-19T22:24:06.918Z,1.16
2023-01-19T22:26:36.997Z,1.15
2023-01-19T22:29:11.094Z,1.13
2023-01-19T22:31:43.436Z,1.15
2023-01-19T22:34:13.701Z,1.18
2023-01-19T22:36:43.259Z,1.21
2023-01-19T22:39:14.708Z,1.24
2023-01-19T22:41:45.610Z,1.25
2023-01-19T22:44:16.970Z,1.23
2023-01-19T22:46:49.880Z,1.21
2023-01-19T22:49:20.853Z,1.16
2023-01-19T22:51:50.453Z,1.09
2023-01-19T22:54:21.315Z,1.02
2023-01-19T22:56:51.023Z,0.92
2023-01-19T22:59:20.591Z,0.83
2023-01-19T23:01:52.888Z,0.73
2023-01-19T23:04:22.709Z,0.66
2023-01-19T23:06:53.883Z,0.59
2023-01-19T23:09:23.455Z,0.53
2023-01-19T23:11:53.030Z,0.45
2023-01-19T23:14:24.492Z,0.40
2023-01-19T23:16:56.618Z,0.36
2023-01-19T23:19:26.221Z,0.36
2023-01-19T23:21:56.076Z,0.39
2023-01-19T23:24:25.670Z,0.43
2023-01-19T23:26:55.258Z,0.50
2023-01-19T23:29:24.866Z,0.56
2023-01-19T23:31:57.089Z,0.60
2023-01-19T23:34:26.668Z,0.60
2023-01-19T23:36:56.409Z,0.56
2023-01-19T23:39:25.959Z,0.50
2023-01-19T23:41:55.527Z,0.47
2023-01-19T23:44:25.085Z,0.47
2023-01-19T23:46:58.008Z,0.52
2023-01-19T23:49:27.895Z,0.56
2023-01-19T23:51:57.478Z,0.64
2023-01-19T23:54:27.139Z,0.71
2023-01-19T23:56:56.701Z,0.76
2023-01-19T23:59:26.266Z,0.79
